sensor_id;sensor_type;location;lat;lon;timestamp;temperature;humidity
18950;DHT22;9608;49.288;8.130;2024-03-08T00:01:14;5.80;99.90
18950;DHT22;9608;49.288;8.130;2024-03-08T00:03:41;5.70;99.90
18950;DHT22;9608;49.288;8.130;2024-03-08T00:06:10;5.70;99.90
18950;DHT22;9608;49.288;8.130;2024-03-08T00:08:36;5.70;99.90
18950;DHT22;9608;49.288;8.130;2024-03-08T00:11:03;5.70;99.90
18950;DHT22;9608;49.288;8.130;2024-03-08T00:13:30;5.60;99.90
18950;DHT22;9608;49.288;8.130;2024-03-08T00:15:57;5.60;99.90
18950;DHT22;9608;49.288;8.130;2024-03-08T00:18:24;5.50;99.90
18950;DHT22;9608;49.288;8.130;2024-03-08T00:20:50;5.40;99.90
18950;DHT22;9608;49.288;8.130;2024-03-08T00:23:19;5.30;99.90
18950;DHT22;9608;49.288;8.130;2024-03-08T00:25:45;5.30;99.90
18950;DHT22;9608;49.288;8.130;2024-03-08T00:28:12;5.30;99.90
18950;DHT22;9608;49.288;8.130;2024-03-08T00:30:40;5.20;99.90
18950;DHT22;9608;49.288;8.130;2024-03-08T00:33:08;5.20;99.90
18950;DHT22;9608;49.288;8.130;2024-03-08T00:35:34;5.10;99.90
18950;DHT22;9608;49.288;8.130;2024-03-08T00:38:01;5.00;99.90
18950;DHT22;9608;49.288;8.130;2024-03-08T00:40:29;4.90;99.90
18950;DHT22;9608;49.288;8.130;2024-03-08T00:42:55;4.80;99.90
18950;DHT22;9608;49.288;8.130;2024-03-08T00:45:22;4.80;99.90
18950;DHT22;9608;49.288;8.130;2024-03-08T00:47:49;4.80;99.90
18950;DHT22;9608;49.288;8.130;2024-03-08T00:50:16;4.80;99.90
18950;DHT22;9608;49.288;8.130;2024-03-08T00:52:43;4.70;99.90
18950;DHT22;9608;49.288;8.130;2024-03-08T00:55:10;4.60;99.90
18950;DHT22;9608;49.288;8.130;2024-03-08T00:57:39;4.60;99.90
18950;DHT22;9608;49.288;8.130;2024-03-08T01:00:06;4.60;99.90
18950;DHT22;9608;49.288;8.130;2024-03-08T01:02:37;4.60;99.90
18950;DHT22;9608;49.288;8.130;2024-03-08T01:05:04;4.60;99.90
18950;DHT22;9608;49.288;8.130;2024-03-08T01:07:33;4.50;99.90
18950;DHT22;9608;49.288;8.130;2024-03-08T01:09:59;4.60;99.90
18950;DHT22;9608;49.288;8.130;2024-03-08T01:12:27;4.50;99.90
18950;DHT22;9608;49.288;8.130;2024-03-08T01:14:55;4.50;99.90
18950;DHT22;9608;49.288;8.130;2024-03-08T01:17:23;4.50;99.90
18950;DHT22;9608;49.288;8.130;2024-03-08T01:19:49;4.50;99.90
18950;DHT22;9608;49.288;8.130;2024-03-08T01:22:16;4.50;99.90
18950;DHT22;9608;49.288;8.130;2024-03-08T01:24:43;4.50;99.90
18950;DHT22;9608;49.288;8.130;2024-03-08T01:27:09;4.60;99.90
18950;DHT22;9608;49.288;8.130;2024-03-08T01:29:37;4.60;99.90
18950;DHT22;9608;49.288;8.130;2024-03-08T01:32:06;4.60;99.90
18950;DHT22;9608;49.288;8.130;2024-03-08T01:34:32;4.60;99.90
18950;DHT22;9608;49.288;8.130;2024-03-08T01:36:59;4.60;99.90
18950;DHT22;9608;49.288;8.130;2024-03-08T01:39:26;4.60;99.90
18950;DHT22;9608;49.288;8.130;2024-03-08T01:41:53;4.60;99.90
18950;DHT22;9608;49.288;8.130;2024-03-08T01:44:20;4.50;99.90
18950;DHT22;9608;49.288;8.130;2024-03-08T01:46:49;4.50;99.90
18950;DHT22;9608;49.288;8.130;2024-03-08T01:49:20;4.50;99.90
18950;DHT22;9608;49.288;8.130;2024-03-08T01:51:49;4.40;99.90
18950;DHT22;9608;49.288;8.130;2024-03-08T01:54:18;4.40;99.90
18950;DHT22;9608;49.288;8.130;2024-03-08T01:56:45;4.30;99.90
18950;DHT22;9608;49.288;8.130;2024-03-08T01:59:12;4.40;99.90
18950;DHT22;9608;49.288;8.130;2024-03-08T02:01:40;4.50;99.90
18950;DHT22;9608;49.288;8.130;2024-03-08T02:04:07;4.50;99.90
18950;DHT22;9608;49.288;8.130;2024-03-08T02:06:35;4.50;99.90
18950;DHT22;9608;49.288;8.130;2024-03-08T02:09:03;4.50;99.90
18950;DHT22;9608;49.288;8.130;2024-03-08T02:11:33;4.50;99.90
18950;DHT22;9608;49.288;8.130;2024-03-08T02:14:01;4.50;99.90
18950;DHT22;9608;49.288;8.130;2024-03-08T02:16:28;4.40;99.90
18950;DHT22;9608;49.288;8.130;2024-03-08T02:18:55;4.40;99.90
18950;DHT22;9608;49.288;8.130;2024-03-08T02:21:23;4.30;99.90
18950;DHT22;9608;49.288;8.130;2024-03-08T02:23:50;4.30;99.90
18950;DHT22;9608;49.288;8.130;2024-03-08T02:26:17;4.30;99.90
18950;DHT22;9608;49.288;8.130;2024-03-08T02:28:45;4.30;99.90
18950;DHT22;9608;49.288;8.130;2024-03-08T02:31:12;4.30;99.90
18950;DHT22;9608;49.288;8.130;2024-03-08T02:33:38;4.20;99.90
18950;DHT22;9608;49.288;8.130;2024-03-08T02:36:06;4.20;99.90
18950;DHT22;9608;49.288;8.130;2024-03-08T02:38:34;4.20;99.90
18950;DHT22;9608;49.288;8.130;2024-03-08T02:41:01;4.20;99.90
18950;DHT22;9608;49.288;8.130;2024-03-08T02:43:29;4.10;99.90
18950;DHT22;9608;49.288;8.130;2024-03-08T02:45:55;4.10;99.90
18950;DHT22;9608;49.288;8.130;2024-03-08T02:48:22;4.10;99.90
18950;DHT22;9608;49.288;8.130;2024-03-08T02:50:49;4.10;99.90
18950;DHT22;9608;49.288;8.130;2024-03-08T02:53:17;4.10;99.90
18950;DHT22;9608;49.288;8.130;2024-03-08T02:55:45;4.10;99.90
18950;DHT22;9608;49.288;8.130;2024-03-08T02:58:12;4.10;99.90
18950;DHT22;9608;49.288;8.130;2024-03-08T03:00:40;4.10;99.90
18950;DHT22;9608;49.288;8.130;2024-03-08T03:03:07;4.10;99.90
18950;DHT22;9608;49.288;8.130;2024-03-08T03:05:34;4.10;99.90
18950;DHT22;9608;49.288;8.130;2024-03-08T03:08:01;4.00;99.90
18950;DHT22;9608;49.288;8.130;2024-03-08T03:10:29;4.00;99.90
18950;DHT22;9608;49.288;8.130;2024-03-08T03:12:57;4.00;99.90
18950;DHT22;9608;49.288;8.130;2024-03-08T03:15:24;3.90;99.90
18950;DHT22;9608;49.288;8.130;2024-03-08T03:17:51;3.90;99.90
18950;DHT22;9608;49.288;8.130;2024-03-08T03:20:18;3.90;99.90
18950;DHT22;9608;49.288;8.130;2024-03-08T03:22:52;3.90;99.90
18950;DHT22;9608;49.288;8.130;2024-03-08T03:25:19;3.80;99.90
18950;DHT22;9608;49.288;8.130;2024-03-08T03:27:51;3.80;99.90
18950;DHT22;9608;49.288;8.130;2024-03-08T03:30:19;3.80;99.90
18950;DHT22;9608;49.288;8.130;2024-03-08T03:32:47;3.80;99.90
18950;DHT22;9608;49.288;8.130;2024-03-08T03:35:15;3.80;99.90
18950;DHT22;9608;49.288;8.130;2024-03-08T03:37:42;3.80;99.90
18950;DHT22;9608;49.288;8.130;2024-03-08T03:40:11;3.80;99.90
18950;DHT22;9608;49.288;8.130;2024-03-08T03:42:39;3.80;99.90
18950;DHT22;9608;49.288;8.130;2024-03-08T03:45:06;3.80;99.90
18950;DHT22;9608;49.288;8.130;2024-03-08T03:47:36;3.80;99.90
18950;DHT22;9608;49.288;8.130;2024-03-08T03:50:04;3.70;99.90
18950;DHT22;9608;49.288;8.130;2024-03-08T03:52:31;3.70;99.90
18950;DHT22;9608;49.288;8.130;2024-03-08T03:54:58;3.60;99.90
18950;DHT22;9608;49.288;8.130;2024-03-08T03:57:25;3.60;99.90
18950;DHT22;9608;49.288;8.130;2024-03-08T03:59:51;3.50;99.90
18950;DHT22;9608;49.288;8.130;2024-03-08T04:02:18;3.50;99.90
18950;DHT22;9608;49.288;8.130;2024-03-08T04:04:47;3.50;99.90
18950;DHT22;9608;49.288;8.130;2024-03-08T04:07:14;3.50;99.90
18950;DHT22;9608;49.288;8.130;2024-03-08T04:09:41;3.50;99.90
18950;DHT22;9608;49.288;8.130;2024-03-08T04:12:07;3.50;99.90
18950;DHT22;9608;49.288;8.130;2024-03-08T04:14:35;3.50;99.90
18950;DHT22;9608;49.288;8.130;2024-03-08T04:17:02;3.50;99.90
18950;DHT22;9608;49.288;8.130;2024-03-08T04:19:28;3.60;99.90
18950;DHT22;9608;49.288;8.130;2024-03-08T04:21:57;3.60;99.90
18950;DHT22;9608;49.288;8.130;2024-03-08T04:24:23;3.50;99.90
18950;DHT22;9608;49.288;8.130;2024-03-08T04:26:50;3.40;99.90
18950;DHT22;9608;49.288;8.130;2024-03-08T04:29:18;3.40;99.90
18950;DHT22;9608;49.288;8.130;2024-03-08T04:31:45;3.40;99.90
18950;DHT22;9608;49.288;8.130;2024-03-08T04:34:12;3.40;99.90
18950;DHT22;9608;49.288;8.130;2024-03-08T04:36:40;3.40;99.90
18950;DHT22;9608;49.288;8.130;2024-03-08T04:39:08;3.30;99.90
18950;DHT22;9608;49.288;8.130;2024-03-08T04:41:38;3.30;99.90
18950;DHT22;9608;49.288;8.130;2024-03-08T04:44:05;3.30;99.90
18950;DHT22;9608;49.288;8.130;2024-03-08T04:46:32;3.30;99.90
18950;DHT22;9608;49.288;8.130;2024-03-08T04:49:00;3.20;99.90
18950;DHT22;9608;49.288;8.130;2024-03-08T04:51:27;3.10;99.90
18950;DHT22;9608;49.288;8.130;2024-03-08T04:53:54;3.10;99.90
18950;DHT22;9608;49.288;8.130;2024-03-08T04:56:23;3.00;99.90
18950;DHT22;9608;49.288;8.130;2024-03-08T04:58:51;3.00;99.90
18950;DHT22;9608;49.288;8.130;2024-03-08T05:01:18;3.00;99.90
18950;DHT22;9608;49.288;8.130;2024-03-08T05:03:45;3.00;99.90
18950;DHT22;9608;49.288;8.130;2024-03-08T05:06:14;2.90;99.90
18950;DHT22;9608;49.288;8.130;2024-03-08T05:08:40;2.90;99.90
18950;DHT22;9608;49.288;8.130;2024-03-08T05:11:07;2.90;99.90
18950;DHT22;9608;49.288;8.130;2024-03-08T05:13:36;2.90;99.90
18950;DHT22;9608;49.288;8.130;2024-03-08T05:16:03;2.90;99.90
18950;DHT22;9608;49.288;8.130;2024-03-08T05:18:30;2.80;99.90
18950;DHT22;9608;49.288;8.130;2024-03-08T05:20:57;2.80;99.90
18950;DHT22;9608;49.288;8.130;2024-03-08T05:23:24;2.80;99.90
18950;DHT22;9608;49.288;8.130;2024-03-08T05:25:51;2.80;99.90
18950;DHT22;9608;49.288;8.130;2024-03-08T05:28:17;2.70;99.90
18950;DHT22;9608;49.288;8.130;2024-03-08T05:30:46;2.80;99.90
18950;DHT22;9608;49.288;8.130;2024-03-08T05:33:13;2.80;99.90
18950;DHT22;9608;49.288;8.130;2024-03-08T05:35:40;2.80;99.90
18950;DHT22;9608;49.288;8.130;2024-03-08T05:38:06;2.90;99.90
18950;DHT22;9608;49.288;8.130;2024-03-08T05:40:33;2.60;99.90
18950;DHT22;9608;49.288;8.130;2024-03-08T05:43:00;2.30;99.90
18950;DHT22;9608;49.288;8.130;2024-03-08T05:45:26;2.20;99.90
18950;DHT22;9608;49.288;8.130;2024-03-08T05:47:55;2.10;99.90
18950;DHT22;9608;49.288;8.130;2024-03-08T05:50:22;2.10;99.90
18950;DHT22;9608;49.288;8.130;2024-03-08T05:52:48;2.10;99.90
18950;DHT22;9608;49.288;8.130;2024-03-08T05:55:15;2.00;99.90
18950;DHT22;9608;49.288;8.130;2024-03-08T05:57:42;2.00;99.90
18950;DHT22;9608;49.288;8.130;2024-03-08T06:00:10;2.00;99.90
18950;DHT22;9608;49.288;8.130;2024-03-08T06:02:37;1.90;99.90
18950;DHT22;9608;49.288;8.130;2024-03-08T06:05:08;2.00;99.90
18950;DHT22;9608;49.288;8.130;2024-03-08T06:07:36;2.00;99.90
18950;DHT22;9608;49.288;8.130;2024-03-08T06:10:06;2.00;99.90
18950;DHT22;9608;49.288;8.130;2024-03-08T06:12:35;2.00;99.90
18950;DHT22;9608;49.288;8.130;2024-03-08T06:15:06;2.00;99.90
18950;DHT22;9608;49.288;8.130;2024-03-08T06:17:32;2.10;99.90
18950;DHT22;9608;49.288;8.130;2024-03-08T06:20:00;2.20;99.90
18950;DHT22;9608;49.288;8.130;2024-03-08T06:22:28;2.10;99.90
18950;DHT22;9608;49.288;8.130;2024-03-08T06:24:55;2.20;99.90
18950;DHT22;9608;49.288;8.130;2024-03-08T06:27:22;2.20;99.90
18950;DHT22;9608;49.288;8.130;2024-03-08T06:29:49;2.20;99.90
18950;DHT22;9608;49.288;8.130;2024-03-08T06:32:15;2.20;99.90
18950;DHT22;9608;49.288;8.130;2024-03-08T06:34:42;2.20;99.90
18950;DHT22;9608;49.288;8.130;2024-03-08T06:37:09;2.20;99.90
18950;DHT22;9608;49.288;8.130;2024-03-08T06:39:37;2.20;99.90
18950;DHT22;9608;49.288;8.130;2024-03-08T06:42:04;2.40;99.90
18950;DHT22;9608;49.288;8.130;2024-03-08T06:44:31;2.40;99.90
18950;DHT22;9608;49.288;8.130;2024-03-08T06:46:58;2.60;99.90
18950;DHT22;9608;49.288;8.130;2024-03-08T06:49:25;2.50;99.90
18950;DHT22;9608;49.288;8.130;2024-03-08T06:51:52;2.40;99.90
18950;DHT22;9608;49.288;8.130;2024-03-08T06:54:19;2.60;99.90
18950;DHT22;9608;49.288;8.130;2024-03-08T06:56:48;2.60;99.90
18950;DHT22;9608;49.288;8.130;2024-03-08T06:59:14;2.70;99.90
18950;DHT22;9608;49.288;8.130;2024-03-08T07:01:43;2.90;99.90
18950;DHT22;9608;49.288;8.130;2024-03-08T07:04:10;3.00;99.90
18950;DHT22;9608;49.288;8.130;2024-03-08T07:06:37;3.00;99.90
18950;DHT22;9608;49.288;8.130;2024-03-08T07:09:06;3.10;99.90
18950;DHT22;9608;49.288;8.130;2024-03-08T07:11:36;3.20;99.90
18950;DHT22;9608;49.288;8.130;2024-03-08T07:20:50;3.10;99.90
18950;DHT22;9608;49.288;8.130;2024-03-08T07:23:24;3.20;99.90
18950;DHT22;9608;49.288;8.130;2024-03-08T07:26:22;3.30;99.90
18950;DHT22;9608;49.288;8.130;2024-03-08T07:28:49;3.30;99.90
18950;DHT22;9608;49.288;8.130;2024-03-08T07:31:17;3.40;99.90
18950;DHT22;9608;49.288;8.130;2024-03-08T07:40:42;3.70;99.90
18950;DHT22;9608;49.288;8.130;2024-03-08T07:43:12;3.70;99.90
18950;DHT22;9608;49.288;8.130;2024-03-08T07:45:40;3.70;99.90
18950;DHT22;9608;49.288;8.130;2024-03-08T07:48:09;3.80;99.90
18950;DHT22;9608;49.288;8.130;2024-03-08T07:50:52;3.70;99.90
18950;DHT22;9608;49.288;8.130;2024-03-08T07:53:25;4.00;99.90
18950;DHT22;9608;49.288;8.130;2024-03-08T07:56:01;4.10;99.90
18950;DHT22;9608;49.288;8.130;2024-03-08T07:58:33;3.90;99.90
18950;DHT22;9608;49.288;8.130;2024-03-08T08:01:01;3.80;99.90
18950;DHT22;9608;49.288;8.130;2024-03-08T08:03:31;4.00;99.90
18950;DHT22;9608;49.288;8.130;2024-03-08T08:06:03;4.10;99.90
18950;DHT22;9608;49.288;8.130;2024-03-08T08:08:59;4.20;99.90
18950;DHT22;9608;49.288;8.130;2024-03-08T08:11:38;4.20;99.90
18950;DHT22;9608;49.288;8.130;2024-03-08T08:14:10;4.20;99.90
18950;DHT22;9608;49.288;8.130;2024-03-08T08:16:48;4.30;99.90
18950;DHT22;9608;49.288;8.130;2024-03-08T08:19:22;4.30;99.90
18950;DHT22;9608;49.288;8.130;2024-03-08T08:22:17;4.40;99.90
18950;DHT22;9608;49.288;8.130;2024-03-08T08:24:50;4.50;99.90
18950;DHT22;9608;49.288;8.130;2024-03-08T08:27:33;4.70;99.90
18950;DHT22;9608;49.288;8.130;2024-03-08T08:30:17;4.90;99.90
18950;DHT22;9608;49.288;8.130;2024-03-08T08:33:20;5.10;99.90
18950;DHT22;9608;49.288;8.130;2024-03-08T08:35:49;5.30;99.90
18950;DHT22;9608;49.288;8.130;2024-03-08T08:41:59;5.00;99.90
18950;DHT22;9608;49.288;8.130;2024-03-08T08:44:30;5.30;99.90
18950;DHT22;9608;49.288;8.130;2024-03-08T08:46:57;5.50;99.90
18950;DHT22;9608;49.288;8.130;2024-03-08T08:49:29;5.50;99.90
18950;DHT22;9608;49.288;8.130;2024-03-08T08:51:56;5.30;99.90
18950;DHT22;9608;49.288;8.130;2024-03-08T08:54:24;5.10;99.90
18950;DHT22;9608;49.288;8.130;2024-03-08T08:56:53;5.30;99.90
18950;DHT22;9608;49.288;8.130;2024-03-08T08:59:20;5.50;99.90
18950;DHT22;9608;49.288;8.130;2024-03-08T09:02:06;5.80;99.90
18950;DHT22;9608;49.288;8.130;2024-03-08T09:04:34;5.90;99.90
18950;DHT22;9608;49.288;8.130;2024-03-08T09:07:03;5.50;99.90
18950;DHT22;9608;49.288;8.130;2024-03-08T09:09:32;5.80;99.90
18950;DHT22;9608;49.288;8.130;2024-03-08T09:12:00;5.80;99.90
18950;DHT22;9608;49.288;8.130;2024-03-08T09:14:29;5.90;99.90
18950;DHT22;9608;49.288;8.130;2024-03-08T09:16:59;5.90;99.90
18950;DHT22;9608;49.288;8.130;2024-03-08T09:19:28;5.90;99.90
18950;DHT22;9608;49.288;8.130;2024-03-08T09:21:56;6.00;99.90
18950;DHT22;9608;49.288;8.130;2024-03-08T09:24:27;5.80;99.90
18950;DHT22;9608;49.288;8.130;2024-03-08T09:27:01;5.60;99.90
18950;DHT22;9608;49.288;8.130;2024-03-08T09:29:29;5.50;99.90
18950;DHT22;9608;49.288;8.130;2024-03-08T09:32:06;5.40;99.90
18950;DHT22;9608;49.288;8.130;2024-03-08T09:34:36;5.40;99.90
18950;DHT22;9608;49.288;8.130;2024-03-08T09:37:05;5.60;99.90
18950;DHT22;9608;49.288;8.130;2024-03-08T09:39:38;5.70;99.90
18950;DHT22;9608;49.288;8.130;2024-03-08T09:42:06;5.80;99.90
18950;DHT22;9608;49.288;8.130;2024-03-08T09:44:37;5.90;99.90
18950;DHT22;9608;49.288;8.130;2024-03-08T09:47:08;5.90;99.90
18950;DHT22;9608;49.288;8.130;2024-03-08T09:49:39;5.90;99.90
18950;DHT22;9608;49.288;8.130;2024-03-08T09:52:22;5.80;99.90
18950;DHT22;9608;49.288;8.130;2024-03-08T09:55:09;6.10;99.90
18950;DHT22;9608;49.288;8.130;2024-03-08T09:57:44;6.20;99.90
18950;DHT22;9608;49.288;8.130;2024-03-08T10:00:34;6.50;99.90
18950;DHT22;9608;49.288;8.130;2024-03-08T10:03:08;6.50;99.90
18950;DHT22;9608;49.288;8.130;2024-03-08T10:05:37;6.50;99.90
18950;DHT22;9608;49.288;8.130;2024-03-08T10:08:07;6.20;99.90
18950;DHT22;9608;49.288;8.130;2024-03-08T10:10:36;6.20;99.90
18950;DHT22;9608;49.288;8.130;2024-03-08T10:13:05;6.30;99.90
18950;DHT22;9608;49.288;8.130;2024-03-08T10:15:34;6.50;99.90
18950;DHT22;9608;49.288;8.130;2024-03-08T10:18:01;6.50;99.90
18950;DHT22;9608;49.288;8.130;2024-03-08T10:20:37;5.90;99.90
18950;DHT22;9608;49.288;8.130;2024-03-08T10:23:22;5.70;99.90
18950;DHT22;9608;49.288;8.130;2024-03-08T10:25:57;5.70;99.90
18950;DHT22;9608;49.288;8.130;2024-03-08T10:28:24;5.80;99.90
18950;DHT22;9608;49.288;8.130;2024-03-08T10:30:56;5.70;99.90
18950;DHT22;9608;49.288;8.130;2024-03-08T10:33:24;5.80;99.90
18950;DHT22;9608;49.288;8.130;2024-03-08T10:35:53;5.70;99.90
18950;DHT22;9608;49.288;8.130;2024-03-08T10:38:23;5.60;99.90
18950;DHT22;9608;49.288;8.130;2024-03-08T10:40:51;5.40;99.90
18950;DHT22;9608;49.288;8.130;2024-03-08T10:43:23;5.70;99.90
18950;DHT22;9608;49.288;8.130;2024-03-08T10:46:03;6.10;99.90
18950;DHT22;9608;49.288;8.130;2024-03-08T10:48:36;6.20;99.90
18950;DHT22;9608;49.288;8.130;2024-03-08T10:51:08;6.30;99.90
18950;DHT22;9608;49.288;8.130;2024-03-08T10:53:37;6.40;99.90
18950;DHT22;9608;49.288;8.130;2024-03-08T10:56:17;6.40;99.90
18950;DHT22;9608;49.288;8.130;2024-03-08T10:58:54;6.00;99.90
18950;DHT22;9608;49.288;8.130;2024-03-08T11:01:30;6.00;99.90
18950;DHT22;9608;49.288;8.130;2024-03-08T11:04:06;6.10;99.90
18950;DHT22;9608;49.288;8.130;2024-03-08T11:13:32;5.80;99.90
18950;DHT22;9608;49.288;8.130;2024-03-08T11:16:08;5.70;99.90
18950;DHT22;9608;49.288;8.130;2024-03-08T11:18:48;5.70;99.90
18950;DHT22;9608;49.288;8.130;2024-03-08T11:21:18;5.80;99.90
18950;DHT22;9608;49.288;8.130;2024-03-08T11:23:59;6.00;99.90
18950;DHT22;9608;49.288;8.130;2024-03-08T11:26:27;6.00;99.90
18950;DHT22;9608;49.288;8.130;2024-03-08T11:32:14;6.00;99.90
18950;DHT22;9608;49.288;8.130;2024-03-08T11:34:43;6.00;99.90
18950;DHT22;9608;49.288;8.130;2024-03-08T11:37:13;6.20;99.90
18950;DHT22;9608;49.288;8.130;2024-03-08T11:39:46;6.20;99.90
18950;DHT22;9608;49.288;8.130;2024-03-08T11:42:14;6.10;99.90
18950;DHT22;9608;49.288;8.130;2024-03-08T11:44:43;6.20;99.90
18950;DHT22;9608;49.288;8.130;2024-03-08T11:47:12;6.40;99.90
18950;DHT22;9608;49.288;8.130;2024-03-08T11:49:40;6.30;99.90
18950;DHT22;9608;49.288;8.130;2024-03-08T11:52:11;6.30;99.90
18950;DHT22;9608;49.288;8.130;2024-03-08T11:54:40;6.50;99.90
18950;DHT22;9608;49.288;8.130;2024-03-08T11:57:07;6.50;99.90
18950;DHT22;9608;49.288;8.130;2024-03-08T11:59:38;6.30;99.90
18950;DHT22;9608;49.288;8.130;2024-03-08T12:02:08;6.40;99.90
18950;DHT22;9608;49.288;8.130;2024-03-08T12:04:38;6.50;99.90
18950;DHT22;9608;49.288;8.130;2024-03-08T12:07:10;6.70;99.90
18950;DHT22;9608;49.288;8.130;2024-03-08T12:09:38;7.00;99.90
18950;DHT22;9608;49.288;8.130;2024-03-08T12:12:07;7.00;99.90
18950;DHT22;9608;49.288;8.130;2024-03-08T12:14:37;6.90;99.90
18950;DHT22;9608;49.288;8.130;2024-03-08T12:17:05;6.90;99.90
18950;DHT22;9608;49.288;8.130;2024-03-08T12:19:32;7.00;99.90
18950;DHT22;9608;49.288;8.130;2024-03-08T12:22:08;7.10;99.90
18950;DHT22;9608;49.288;8.130;2024-03-08T12:24:36;7.20;99.90
18950;DHT22;9608;49.288;8.130;2024-03-08T12:27:17;7.20;99.90
18950;DHT22;9608;49.288;8.130;2024-03-08T12:29:44;7.50;99.90
18950;DHT22;9608;49.288;8.130;2024-03-08T12:32:12;7.50;99.90
18950;DHT22;9608;49.288;8.130;2024-03-08T12:34:39;7.50;99.90
18950;DHT22;9608;49.288;8.130;2024-03-08T12:37:08;7.30;99.90
18950;DHT22;9608;49.288;8.130;2024-03-08T12:39:35;7.40;99.90
18950;DHT22;9608;49.288;8.130;2024-03-08T12:42:05;7.70;99.90
18950;DHT22;9608;49.288;8.130;2024-03-08T12:44:32;7.90;99.90
18950;DHT22;9608;49.288;8.130;2024-03-08T12:46:59;7.80;99.90
18950;DHT22;9608;49.288;8.130;2024-03-08T12:49:25;7.70;99.90
18950;DHT22;9608;49.288;8.130;2024-03-08T12:51:52;7.70;99.90
18950;DHT22;9608;49.288;8.130;2024-03-08T12:54:20;7.50;99.90
18950;DHT22;9608;49.288;8.130;2024-03-08T12:56:49;7.40;99.90
18950;DHT22;9608;49.288;8.130;2024-03-08T12:59:18;7.30;99.90
18950;DHT22;9608;49.288;8.130;2024-03-08T13:01:47;7.10;99.90
18950;DHT22;9608;49.288;8.130;2024-03-08T13:04:14;7.10;99.90
18950;DHT22;9608;49.288;8.130;2024-03-08T13:06:40;7.20;99.90
18950;DHT22;9608;49.288;8.130;2024-03-08T13:09:08;7.40;99.90
18950;DHT22;9608;49.288;8.130;2024-03-08T13:11:36;7.40;99.90
18950;DHT22;9608;49.288;8.130;2024-03-08T13:14:03;7.40;99.90
18950;DHT22;9608;49.288;8.130;2024-03-08T13:16:31;7.40;99.90
18950;DHT22;9608;49.288;8.130;2024-03-08T13:19:00;7.70;99.90
18950;DHT22;9608;49.288;8.130;2024-03-08T13:21:26;8.10;99.90
18950;DHT22;9608;49.288;8.130;2024-03-08T13:23:55;8.30;99.90
18950;DHT22;9608;49.288;8.130;2024-03-08T13:26:24;8.50;99.90
18950;DHT22;9608;49.288;8.130;2024-03-08T13:28:55;8.30;99.90
18950;DHT22;9608;49.288;8.130;2024-03-08T13:31:24;8.30;99.90
18950;DHT22;9608;49.288;8.130;2024-03-08T13:33:50;8.00;99.90
18950;DHT22;9608;49.288;8.130;2024-03-08T13:36:23;7.90;99.90
18950;DHT22;9608;49.288;8.130;2024-03-08T13:38:54;7.80;99.90
18950;DHT22;9608;49.288;8.130;2024-03-08T13:41:21;7.80;99.90
18950;DHT22;9608;49.288;8.130;2024-03-08T13:43:49;7.90;99.90
18950;DHT22;9608;49.288;8.130;2024-03-08T13:46:17;7.60;99.90
18950;DHT22;9608;49.288;8.130;2024-03-08T13:48:44;7.60;99.90
18950;DHT22;9608;49.288;8.130;2024-03-08T13:51:11;7.70;99.90
18950;DHT22;9608;49.288;8.130;2024-03-08T13:53:40;7.80;99.90
18950;DHT22;9608;49.288;8.130;2024-03-08T13:56:07;7.80;99.90
18950;DHT22;9608;49.288;8.130;2024-03-08T13:58:36;7.60;99.90
18950;DHT22;9608;49.288;8.130;2024-03-08T14:01:02;7.70;99.90
18950;DHT22;9608;49.288;8.130;2024-03-08T14:03:32;7.70;99.90
18950;DHT22;9608;49.288;8.130;2024-03-08T14:05:59;7.90;99.90
18950;DHT22;9608;49.288;8.130;2024-03-08T14:08:26;8.10;99.90
18950;DHT22;9608;49.288;8.130;2024-03-08T14:10:53;8.30;99.90
18950;DHT22;9608;49.288;8.130;2024-03-08T14:13:20;8.10;99.90
18950;DHT22;9608;49.288;8.130;2024-03-08T14:15:46;8.00;99.90
18950;DHT22;9608;49.288;8.130;2024-03-08T14:18:13;8.30;99.90
18950;DHT22;9608;49.288;8.130;2024-03-08T14:20:42;8.40;99.90
18950;DHT22;9608;49.288;8.130;2024-03-08T14:23:09;8.50;99.90
18950;DHT22;9608;49.288;8.130;2024-03-08T14:25:38;8.70;99.90
18950;DHT22;9608;49.288;8.130;2024-03-08T14:28:05;8.80;99.90
18950;DHT22;9608;49.288;8.130;2024-03-08T14:30:33;8.80;99.90
18950;DHT22;9608;49.288;8.130;2024-03-08T14:33:03;8.80;99.90
18950;DHT22;9608;49.288;8.130;2024-03-08T14:35:31;8.80;99.90
18950;DHT22;9608;49.288;8.130;2024-03-08T14:37:59;8.90;99.90
18950;DHT22;9608;49.288;8.130;2024-03-08T14:40:25;8.90;99.90
18950;DHT22;9608;49.288;8.130;2024-03-08T14:42:52;9.10;99.90
18950;DHT22;9608;49.288;8.130;2024-03-08T14:45:19;9.00;99.90
18950;DHT22;9608;49.288;8.130;2024-03-08T14:47:46;9.00;99.90
18950;DHT22;9608;49.288;8.130;2024-03-08T14:50:16;8.90;99.90
18950;DHT22;9608;49.288;8.130;2024-03-08T14:52:43;8.90;99.90
18950;DHT22;9608;49.288;8.130;2024-03-08T14:55:11;8.70;99.90
18950;DHT22;9608;49.288;8.130;2024-03-08T14:57:40;8.70;99.90
18950;DHT22;9608;49.288;8.130;2024-03-08T15:00:08;8.80;99.90
18950;DHT22;9608;49.288;8.130;2024-03-08T15:02:42;9.10;99.90
18950;DHT22;9608;49.288;8.130;2024-03-08T15:05:09;9.20;99.90
18950;DHT22;9608;49.288;8.130;2024-03-08T15:07:37;9.10;99.90
18950;DHT22;9608;49.288;8.130;2024-03-08T15:10:06;9.00;99.90
18950;DHT22;9608;49.288;8.130;2024-03-08T15:12:37;9.00;99.90
18950;DHT22;9608;49.288;8.130;2024-03-08T15:15:07;9.20;99.90
18950;DHT22;9608;49.288;8.130;2024-03-08T15:17:35;9.40;99.90
18950;DHT22;9608;49.288;8.130;2024-03-08T15:20:08;9.40;99.90
18950;DHT22;9608;49.288;8.130;2024-03-08T15:22:42;9.50;99.90
18950;DHT22;9608;49.288;8.130;2024-03-08T15:25:09;9.50;99.90
18950;DHT22;9608;49.288;8.130;2024-03-08T15:27:43;9.60;99.90
18950;DHT22;9608;49.288;8.130;2024-03-08T15:30:10;9.60;99.90
18950;DHT22;9608;49.288;8.130;2024-03-08T15:32:39;9.70;99.90
18950;DHT22;9608;49.288;8.130;2024-03-08T15:35:07;9.50;99.90
18950;DHT22;9608;49.288;8.130;2024-03-08T15:37:39;9.40;99.90
18950;DHT22;9608;49.288;8.130;2024-03-08T15:40:09;9.40;99.90
18950;DHT22;9608;49.288;8.130;2024-03-08T15:42:37;9.50;99.90
18950;DHT22;9608;49.288;8.130;2024-03-08T15:45:07;9.50;99.90
18950;DHT22;9608;49.288;8.130;2024-03-08T15:47:34;9.40;99.90
18950;DHT22;9608;49.288;8.130;2024-03-08T15:50:02;9.50;99.90
18950;DHT22;9608;49.288;8.130;2024-03-08T15:52:29;9.40;99.90
18950;DHT22;9608;49.288;8.130;2024-03-08T15:54:56;9.40;99.90
18950;DHT22;9608;49.288;8.130;2024-03-08T15:57:23;9.60;99.90
18950;DHT22;9608;49.288;8.130;2024-03-08T15:59:50;9.60;99.90
18950;DHT22;9608;49.288;8.130;2024-03-08T16:02:18;9.60;99.90
18950;DHT22;9608;49.288;8.130;2024-03-08T16:04:46;9.50;99.90
18950;DHT22;9608;49.288;8.130;2024-03-08T16:07:13;9.50;99.90
18950;DHT22;9608;49.288;8.130;2024-03-08T16:09:41;9.60;99.90
18950;DHT22;9608;49.288;8.130;2024-03-08T16:12:08;9.60;99.90
18950;DHT22;9608;49.288;8.130;2024-03-08T16:14:36;9.60;99.90
18950;DHT22;9608;49.288;8.130;2024-03-08T16:17:04;9.50;99.90
18950;DHT22;9608;49.288;8.130;2024-03-08T16:19:33;9.40;99.90
18950;DHT22;9608;49.288;8.130;2024-03-08T16:22:01;9.30;99.90
18950;DHT22;9608;49.288;8.130;2024-03-08T16:24:30;9.30;99.90
18950;DHT22;9608;49.288;8.130;2024-03-08T16:26:58;9.30;99.90
18950;DHT22;9608;49.288;8.130;2024-03-08T16:29:25;9.30;99.90
18950;DHT22;9608;49.288;8.130;2024-03-08T16:31:52;9.30;99.90
18950;DHT22;9608;49.288;8.130;2024-03-08T16:34:20;9.20;99.90
18950;DHT22;9608;49.288;8.130;2024-03-08T16:36:49;9.20;99.90
18950;DHT22;9608;49.288;8.130;2024-03-08T16:39:17;9.10;99.90
18950;DHT22;9608;49.288;8.130;2024-03-08T16:41:44;9.00;99.90